createdAt,value
2018-05-26T00:00:25.529Z,47.40
2018-05-26T00:02:51.693Z,47.30
2018-05-26T00:05:17.920Z,47.50
2018-05-26T00:07:45.065Z,47.70
2018-05-26T00:10:11.265Z,47.80
2018-05-26T00:12:38.182Z,48.20
2018-05-26T00:15:04.333Z,48.30
2018-05-26T00:17:30.541Z,48.30
2018-05-26T00:19:56.720Z,48.40
2018-05-26T00:22:23.656Z,48.40
2018-05-26T00:24:50.596Z,48.40
2018-05-26T00:27:16.781Z,49.10
2018-05-26T00:29:42.953Z,48.40
2018-05-26T00:32:09.340Z,48.30
2018-05-26T00:34:35.522Z,48.40
2018-05-26T00:37:01.683Z,48.80
2018-05-26T00:39:28.622Z,48.80
2018-05-26T00:41:54.792Z,48.80
2018-05-26T00:44:20.957Z,48.90
2018-05-26T00:46:47.137Z,49.10
2018-05-26T00:49:14.025Z,49.20
2018-05-26T00:51:40.165Z,49.40
2018-05-26T00:54:06.325Z,49.40
2018-05-26T00:56:32.518Z,49.40
2018-05-26T00:58:58.705Z,49.60
2018-05-26T01:01:24.907Z,49.60
2018-05-26T01:03:51.066Z,49.70
2018-05-26T01:06:18.002Z,49.80
2018-05-26T01:08:44.989Z,50.00
2018-05-26T01:11:11.151Z,50.00
2018-05-26T01:13:37.329Z,50.00
2018-05-26T01:16:03.516Z,50.10
2018-05-26T01:18:29.705Z,50.20
2018-05-26T01:20:55.877Z,50.30
2018-05-26T01:23:22.060Z,50.60
2018-05-26T01:25:48.217Z,50.50
2018-05-26T01:28:14.421Z,50.50
2018-05-26T01:30:41.392Z,51.00
2018-05-26T01:33:07.968Z,50.70
2018-05-26T01:35:34.174Z,50.20
2018-05-26T01:38:17.344Z,50.90
2018-05-26T01:40:43.533Z,50.90
2018-05-26T01:43:10.457Z,51.00
2018-05-26T01:45:37.395Z,51.70
2018-05-26T01:48:03.613Z,51.10
2018-05-26T01:50:29.781Z,51.20
2018-05-26T01:52:55.945Z,51.20
2018-05-26T01:55:22.865Z,51.40
2018-05-26T01:57:49.058Z,51.40
2018-05-26T02:00:15.240Z,51.40
2018-05-26T02:02:41.415Z,51.60
2018-05-26T02:05:07.729Z,51.60
2018-05-26T02:07:33.856Z,51.60
2018-05-26T02:10:00.062Z,51.70
2018-05-26T02:12:26.257Z,51.80
2018-05-26T02:14:52.466Z,51.90
2018-05-26T02:17:18.697Z,51.90
2018-05-26T02:19:45.630Z,51.90
2018-05-26T02:22:11.799Z,51.90
2018-05-26T02:24:37.993Z,51.90
2018-05-26T02:27:04.935Z,51.70
2018-05-26T02:29:31.140Z,52.20
2018-05-26T02:31:57.324Z,52.30
2018-05-26T02:34:24.233Z,52.40
2018-05-26T02:36:50.976Z,52.40
2018-05-26T02:39:17.946Z,52.40
2018-05-26T02:41:44.777Z,52.50
2018-05-26T02:44:10.982Z,52.60
2018-05-26T02:46:37.149Z,52.60
2018-05-26T02:49:03.357Z,52.70
2018-05-26T02:51:29.537Z,52.70
2018-05-26T02:53:55.713Z,52.90
2018-05-26T02:56:22.617Z,53.10
2018-05-26T02:58:48.774Z,53.20
2018-05-26T03:01:14.989Z,53.20
2018-05-26T03:03:41.140Z,53.20
2018-05-26T03:06:14.237Z,53.40
2018-05-26T03:08:47.481Z,53.40
2018-05-26T03:11:19.904Z,53.50
2018-05-26T03:13:52.302Z,53.50
2018-05-26T03:19:22.807Z,54.10
2018-05-26T03:21:48.980Z,53.90
2018-05-26T03:24:15.128Z,54.00
2018-05-26T03:26:41.311Z,54.10
2018-05-26T03:29:08.244Z,54.20
2018-05-26T03:31:34.419Z,54.20
2018-05-26T03:34:00.621Z,54.30
2018-05-26T03:36:26.834Z,54.40
2018-05-26T03:38:53.133Z,54.40
2018-05-26T03:41:19.528Z,54.40
2018-05-26T03:43:46.490Z,54.60
2018-05-26T03:46:12.673Z,54.70
2018-05-26T03:48:38.845Z,54.70
2018-05-26T03:51:05.072Z,54.70
2018-05-26T03:53:31.247Z,54.20
2018-05-26T03:56:15.926Z,54.70
2018-05-26T03:59:00.999Z,54.80
2018-05-26T04:01:27.149Z,54.80
2018-05-26T04:03:54.108Z,55.00
2018-05-26T04:06:20.309Z,55.00
2018-05-26T04:08:46.467Z,55.10
2018-05-26T04:11:13.560Z,55.20
2018-05-26T04:13:39.724Z,55.40
2018-05-26T04:16:05.920Z,55.40
2018-05-26T04:18:32.835Z,55.80
2018-05-26T04:20:59.003Z,55.40
2018-05-26T04:23:25.193Z,55.30
2018-05-26T04:25:51.377Z,55.40
2018-05-26T04:28:18.307Z,55.40
2018-05-26T04:30:44.473Z,55.50
2018-05-26T04:33:10.697Z,55.50
2018-05-26T04:35:36.901Z,55.50
2018-05-26T04:38:03.082Z,55.50
2018-05-26T04:40:29.246Z,55.60
2018-05-26T04:42:55.446Z,55.60
2018-05-26T04:45:21.617Z,55.80
2018-05-26T04:47:47.817Z,55.70
2018-05-26T04:50:13.993Z,55.60
2018-05-26T04:52:40.186Z,55.60
2018-05-26T04:55:06.345Z,55.50
2018-05-26T04:57:32.512Z,55.50
2018-05-26T04:59:58.757Z,55.50
2018-05-26T05:02:25.925Z,55.50
2018-05-26T05:04:52.093Z,55.50
2018-05-26T05:07:18.283Z,55.40
2018-05-26T05:09:45.207Z,55.50
2018-05-26T05:12:11.393Z,55.50
2018-05-26T05:14:37.589Z,55.50
2018-05-26T05:17:04.494Z,56.10
2018-05-26T05:19:30.688Z,55.50
2018-05-26T05:21:57.581Z,55.60
2018-05-26T05:24:23.777Z,55.60
2018-05-26T05:26:50.022Z,55.70
2018-05-26T05:29:16.261Z,55.80
2018-05-26T05:31:42.504Z,55.90
2018-05-26T05:34:09.449Z,56.00
2018-05-26T05:36:35.605Z,56.10
2018-05-26T05:39:02.562Z,55.90
2018-05-26T05:41:28.733Z,55.80
2018-05-26T05:43:54.893Z,56.00
2018-05-26T05:46:21.085Z,55.90
2018-05-26T05:48:48.010Z,55.60
2018-05-26T05:51:14.181Z,55.50
2018-05-26T05:53:40.369Z,55.40
2018-05-26T05:56:06.562Z,55.00
2018-05-26T05:58:32.749Z,54.60
2018-05-26T06:00:58.934Z,54.30
2018-05-26T06:03:25.454Z,53.80
2018-05-26T06:05:52.385Z,51.90
2018-05-26T06:08:18.553Z,52.30
2018-05-26T06:10:44.770Z,51.80
2018-05-26T06:13:10.941Z,51.30
2018-05-26T06:15:37.113Z,50.70
2018-05-26T06:18:03.316Z,50.20
2018-05-26T06:20:29.495Z,49.70
2018-05-26T06:22:55.690Z,49.00
2018-05-26T06:25:21.881Z,48.50
2018-05-26T06:27:48.781Z,47.30
2018-05-26T06:30:14.949Z,47.20
2018-05-26T06:32:42.590Z,46.20
2018-05-26T06:35:08.762Z,46.10
2018-05-26T06:37:35.683Z,45.40
2018-05-26T06:40:01.870Z,45.20
2018-05-26T06:42:28.048Z,45.20
2018-05-26T06:44:54.199Z,44.50
2018-05-26T06:47:20.377Z,43.80
2018-05-26T06:49:46.538Z,43.10
2018-05-26T06:52:12.707Z,42.60
2018-05-26T06:54:46.689Z,41.30
2018-05-26T06:57:12.877Z,41.20
2018-05-26T06:59:39.046Z,40.60
2018-05-26T07:02:05.211Z,40.20
2018-05-26T07:04:32.308Z,39.40
2018-05-26T07:06:58.480Z,39.20
2018-05-26T07:09:24.663Z,39.00
2018-05-26T07:11:50.834Z,38.60
2018-05-26T07:14:16.984Z,38.20
2018-05-26T07:16:43.141Z,37.80
2018-05-26T07:19:09.297Z,37.00
2018-05-26T07:21:35.493Z,36.40
2018-05-26T07:24:02.422Z,35.30
2018-05-26T07:26:28.616Z,35.10
2018-05-26T07:28:54.761Z,34.80
2018-05-26T07:31:20.942Z,34.20
2018-05-26T07:33:47.144Z,33.50
2018-05-26T07:36:13.841Z,33.10
2018-05-26T07:38:39.987Z,32.50
2018-05-26T07:41:06.889Z,31.40
2018-05-26T07:43:33.125Z,31.20
2018-05-26T07:45:59.328Z,31.00
2018-05-26T07:48:25.549Z,30.80
2018-05-26T07:50:51.747Z,30.60
2018-05-26T07:53:18.746Z,30.00
2018-05-26T07:55:45.246Z,29.90
2018-05-26T07:58:13.084Z,29.50
2018-05-26T08:00:39.572Z,29.40
2018-05-26T08:03:06.102Z,29.20
2018-05-26T08:05:32.555Z,29.00
2018-05-26T08:07:59.033Z,28.90
2018-05-26T08:10:25.212Z,28.80
2018-05-26T08:12:52.117Z,28.70
2018-05-26T08:15:18.281Z,28.70
2018-05-26T08:17:44.495Z,28.60
2018-05-26T08:20:11.189Z,28.90
2018-05-26T08:22:37.661Z,28.00
2018-05-26T08:25:04.431Z,27.70
2018-05-26T08:27:31.890Z,26.80
2018-05-26T08:29:58.867Z,26.60
2018-05-26T08:32:25.199Z,26.50
2018-05-26T08:34:51.466Z,26.50
2018-05-26T08:37:18.036Z,26.20
2018-05-26T08:39:44.334Z,25.80
2018-05-26T08:42:11.489Z,25.50
2018-05-26T08:44:38.703Z,24.90
2018-05-26T08:47:05.111Z,24.80
2018-05-26T08:49:31.663Z,24.70
2018-05-26T08:51:58.653Z,24.80
2018-05-26T08:54:25.151Z,24.70
2018-05-26T08:56:52.459Z,24.50
2018-05-26T08:59:19.633Z,24.60
2018-05-26T09:01:45.869Z,24.40
2018-05-26T09:04:12.562Z,24.60
2018-05-26T09:06:38.914Z,24.40
2018-05-26T09:09:05.077Z,24.00
2018-05-26T09:11:31.814Z,23.60
2018-05-26T09:13:58.576Z,23.20
2018-05-26T09:16:24.829Z,23.00
2018-05-26T09:18:51.233Z,22.90
2018-05-26T09:21:18.102Z,22.70
2018-05-26T09:23:44.706Z,22.50
2018-05-26T09:26:10.976Z,22.60
2018-05-26T09:28:37.881Z,22.60
2018-05-26T09:31:04.037Z,22.60
2018-05-26T09:33:30.189Z,22.30
2018-05-26T09:35:57.094Z,21.90
2018-05-26T09:38:23.261Z,21.80
2018-05-26T09:40:50.190Z,21.30
2018-05-26T09:43:16.393Z,21.20
2018-05-26T09:45:42.560Z,21.20
2018-05-26T09:48:08.734Z,20.90
2018-05-26T09:50:34.937Z,20.50
2018-05-26T09:53:01.857Z,20.10
2018-05-26T09:55:28.058Z,20.00
2018-05-26T09:57:54.213Z,19.90
2018-05-26T10:00:20.349Z,19.80
2018-05-26T10:02:46.797Z,19.60
2018-05-26T10:05:14.159Z,19.60
2018-05-26T10:07:40.498Z,19.70
2018-05-26T10:10:06.692Z,19.70
2018-05-26T10:12:33.699Z,19.60
2018-05-26T10:14:59.880Z,19.50
2018-05-26T10:17:26.169Z,19.30
2018-05-26T10:19:52.529Z,19.00
2018-05-26T10:22:19.190Z,19.40
2018-05-26T10:24:46.146Z,19.00
2018-05-26T10:27:12.339Z,19.00
2018-05-26T10:29:38.546Z,19.30
2018-05-26T10:32:04.754Z,19.50
2018-05-26T10:34:30.951Z,19.30
2018-05-26T10:36:57.845Z,19.30
2018-05-26T10:39:24.002Z,19.20
2018-05-26T10:41:50.513Z,19.30
2018-05-26T10:44:16.867Z,19.50
2018-05-26T10:46:43.004Z,19.80
2018-05-26T10:49:09.465Z,20.20
2018-05-26T10:51:37.101Z,21.70
2018-05-26T10:54:03.642Z,21.10
2018-05-26T10:56:30.113Z,21.40
2018-05-26T10:58:57.101Z,21.50
2018-05-26T11:01:23.593Z,21.50
2018-05-26T11:03:50.953Z,21.00
2018-05-26T11:06:18.284Z,21.40
2018-05-26T11:08:44.844Z,21.30
2018-05-26T11:11:11.005Z,21.30
2018-05-26T11:13:37.209Z,21.10
2018-05-26T11:16:03.373Z,20.90
2018-05-26T11:18:30.076Z,20.60
2018-05-26T11:20:56.573Z,20.40
2018-05-26T11:23:22.986Z,20.20
2018-05-26T11:25:49.373Z,19.90
2018-05-26T11:28:16.601Z,19.70
2018-05-26T11:30:43.562Z,19.70
2018-05-26T11:33:10.123Z,19.80
2018-05-26T11:35:36.664Z,19.90
2018-05-26T11:38:02.888Z,19.90
2018-05-26T11:40:29.029Z,20.00
2018-05-26T11:42:55.157Z,20.20
2018-05-26T11:45:21.300Z,20.90
2018-05-26T11:47:49.385Z,20.90
2018-05-26T11:50:15.658Z,20.80
2018-05-26T11:52:42.230Z,21.60
2018-05-26T11:55:08.461Z,21.00
2018-05-26T11:57:35.041Z,20.60
2018-05-26T12:00:02.654Z,20.80
2018-05-26T12:02:30.401Z,20.40
2018-05-26T12:04:56.851Z,20.40
2018-05-26T12:07:23.425Z,20.50
2018-05-26T12:09:49.563Z,20.60
2018-05-26T12:12:15.685Z,20.90
2018-05-26T12:14:41.852Z,21.20
2018-05-26T12:17:08.728Z,21.40
2018-05-26T12:19:35.017Z,21.40
2018-05-26T12:22:01.501Z,21.40
2018-05-26T12:24:27.751Z,21.30
2018-05-26T12:26:54.679Z,21.90
2018-05-26T12:29:20.893Z,21.80
2018-05-26T12:31:48.002Z,22.20
2018-05-26T12:34:14.589Z,22.20
2018-05-26T12:36:41.243Z,22.30
2018-05-26T12:39:08.041Z,22.30
2018-05-26T12:41:34.533Z,22.10
2018-05-26T12:44:01.044Z,21.90
2018-05-26T12:46:27.513Z,21.70
2018-05-26T12:48:54.001Z,21.60
2018-05-26T12:51:21.253Z,21.50
2018-05-26T12:53:49.630Z,21.50
2018-05-26T12:56:16.075Z,21.50
2018-05-26T12:58:42.334Z,21.50
2018-05-26T13:01:08.446Z,21.60
2018-05-26T13:03:34.609Z,21.70
2018-05-26T13:06:00.721Z,21.80
2018-05-26T13:08:26.865Z,22.00
2018-05-26T13:10:53.728Z,22.10
2018-05-26T13:13:20.627Z,22.40
2018-05-26T13:15:46.785Z,22.30
2018-05-26T13:18:12.990Z,22.50
2018-05-26T13:20:39.166Z,22.50
2018-05-26T13:23:05.341Z,22.40
2018-05-26T13:25:31.515Z,22.20
2018-05-26T13:27:57.657Z,22.20
2018-05-26T13:30:24.109Z,22.20
2018-05-26T13:32:50.268Z,22.10
2018-05-26T13:35:16.503Z,22.00
2018-05-26T13:37:43.153Z,21.90
2018-05-26T13:40:09.393Z,22.00
2018-05-26T13:42:35.813Z,22.00
2018-05-26T13:45:02.014Z,22.10
2018-05-26T13:47:28.905Z,22.60
2018-05-26T13:49:55.068Z,22.60
2018-05-26T13:52:21.289Z,22.80
2018-05-26T13:54:47.437Z,23.10
2018-05-26T13:57:13.645Z,23.30
2018-05-26T13:59:40.785Z,23.30
2018-05-26T14:02:06.960Z,23.70
2018-05-26T14:04:33.193Z,23.70
2018-05-26T14:07:00.127Z,24.30
2018-05-26T14:09:26.300Z,24.30
2018-05-26T14:11:53.420Z,24.10
2018-05-26T14:14:19.581Z,24.10
2018-05-26T14:16:46.485Z,24.40
2018-05-26T14:19:12.642Z,24.40
2018-05-26T14:21:38.805Z,24.40
2018-05-26T14:24:05.001Z,24.50
2018-05-26T14:26:31.161Z,24.40
2018-05-26T14:28:57.301Z,24.40
2018-05-26T14:31:24.590Z,25.10
2018-05-26T14:33:50.721Z,24.60
2018-05-26T14:36:16.881Z,24.70
2018-05-26T14:38:43.100Z,24.80
2018-05-26T14:41:09.615Z,24.80
2018-05-26T14:43:35.768Z,24.70
2018-05-26T14:46:02.040Z,24.90
2018-05-26T14:48:28.236Z,25.10
2018-05-26T14:50:55.420Z,25.10
2018-05-26T14:53:21.637Z,25.30
2018-05-26T14:55:47.817Z,25.40
2018-05-26T14:58:14.782Z,25.40
2018-05-26T15:00:41.043Z,25.40
2018-05-26T15:03:07.240Z,25.50
2018-05-26T15:05:34.141Z,25.60
2018-05-26T15:08:00.379Z,25.60
2018-05-26T15:10:26.830Z,25.70
2018-05-26T15:12:53.058Z,25.70
2018-05-26T15:15:19.188Z,25.60
2018-05-26T15:17:45.357Z,25.70
2018-05-26T15:20:12.292Z,25.70
2018-05-26T15:22:38.602Z,25.70
2018-05-26T15:25:04.776Z,26.10
2018-05-26T15:27:31.701Z,25.90
2018-05-26T15:29:59.367Z,26.00
2018-05-26T15:32:25.885Z,25.90
2018-05-26T15:34:52.073Z,25.90
2018-05-26T15:37:18.883Z,25.60
2018-05-26T15:39:45.081Z,25.40
2018-05-26T15:42:11.985Z,25.50
2018-05-26T15:44:38.191Z,25.50
2018-05-26T15:47:04.386Z,25.60
2018-05-26T15:49:30.608Z,25.60
2018-05-26T15:51:56.766Z,25.60
2018-05-26T15:54:23.638Z,25.60
2018-05-26T15:56:49.838Z,25.70
2018-05-26T15:59:16.793Z,25.70
2018-05-26T16:01:43.741Z,25.60
2018-05-26T16:04:10.652Z,25.60
2018-05-26T16:06:36.839Z,25.60
2018-05-26T16:09:04.050Z,25.60
2018-05-26T16:11:30.242Z,25.60
2018-05-26T16:13:56.426Z,25.60
2018-05-26T16:16:22.657Z,25.60
2018-05-26T16:18:50.303Z,25.70
2018-05-26T16:21:16.553Z,25.60
2018-05-26T16:23:42.749Z,25.80
2018-05-26T16:26:09.033Z,25.80
2018-05-26T16:28:35.989Z,26.20
2018-05-26T16:31:02.965Z,25.70
2018-05-26T16:33:31.312Z,25.70
2018-05-26T16:35:57.475Z,25.60
2018-05-26T16:38:23.704Z,25.70
2018-05-26T16:40:50.614Z,25.70
2018-05-26T16:43:16.770Z,25.70
2018-05-26T16:45:42.962Z,25.70
2018-05-26T16:48:09.153Z,25.70
2018-05-26T16:50:36.042Z,25.70
2018-05-26T16:53:02.253Z,25.70
2018-05-26T16:55:28.448Z,25.80
2018-05-26T16:57:54.590Z,25.80
2018-05-26T17:00:21.497Z,25.80
2018-05-26T17:02:47.741Z,25.80
2018-05-26T17:05:13.888Z,25.90
2018-05-26T17:07:40.057Z,25.80
2018-05-26T17:10:07.000Z,25.80
2018-05-26T17:12:33.889Z,25.80
2018-05-26T17:15:00.034Z,25.70
2018-05-26T17:17:26.217Z,25.80
2018-05-26T17:19:52.519Z,25.80
2018-05-26T17:22:18.713Z,25.80
2018-05-26T17:24:45.241Z,25.80
2018-05-26T17:27:11.459Z,25.70
2018-05-26T17:29:38.364Z,25.70
2018-05-26T17:32:04.565Z,25.70
2018-05-26T17:34:30.717Z,25.70
2018-05-26T17:36:56.893Z,25.80
2018-05-26T17:39:23.076Z,25.90
2018-05-26T17:41:49.289Z,25.90
2018-05-26T17:44:16.337Z,26.00
2018-05-26T17:46:43.246Z,26.40
2018-05-26T17:49:09.417Z,25.90
2018-05-26T17:51:36.382Z,25.90
2018-05-26T17:54:02.534Z,25.90
2018-05-26T17:56:29.153Z,25.90
2018-05-26T17:58:55.409Z,26.00
2018-05-26T18:01:21.636Z,26.10
2018-05-26T18:03:47.806Z,26.10
2018-05-26T18:06:14.783Z,26.20
2018-05-26T18:08:40.925Z,26.20
2018-05-26T18:11:07.101Z,26.30
2018-05-26T18:13:33.358Z,26.40
2018-05-26T18:15:59.553Z,26.50
2018-05-26T18:18:25.812Z,26.60
2018-05-26T18:20:51.993Z,26.60
2018-05-26T18:23:18.898Z,26.90
2018-05-26T18:25:45.077Z,27.20
2018-05-26T18:28:12.030Z,27.00
2018-05-26T18:30:39.011Z,27.20
2018-05-26T18:33:05.197Z,27.10
2018-05-26T18:35:31.388Z,27.10
2018-05-26T18:37:57.578Z,27.20
2018-05-26T18:40:24.493Z,27.40
2018-05-26T18:42:50.673Z,27.40
2018-05-26T18:45:17.565Z,27.70
2018-05-26T18:47:43.757Z,27.60
2018-05-26T18:50:10.681Z,27.90
2018-05-26T18:52:37.619Z,28.00
2018-05-26T18:55:03.821Z,28.00
2018-05-26T18:57:30.989Z,28.10
2018-05-26T18:59:57.160Z,28.20
2018-05-26T19:02:23.945Z,28.40
2018-05-26T19:04:51.143Z,28.50
2018-05-26T19:07:17.314Z,28.80
2018-05-26T19:09:43.517Z,28.90
2018-05-26T19:12:09.703Z,29.00
2018-05-26T19:14:35.898Z,29.10
2018-05-26T19:17:02.101Z,29.20
2018-05-26T19:19:28.337Z,29.30
2018-05-26T19:21:54.501Z,29.50
2018-05-26T19:24:22.164Z,29.90
2018-05-26T19:26:48.362Z,29.90
2018-05-26T19:29:14.557Z,30.00
2018-05-26T19:31:42.293Z,30.50
2018-05-26T19:34:09.539Z,30.50
2018-05-26T19:36:36.311Z,30.70
2018-05-26T19:39:02.579Z,30.90
2018-05-26T19:41:28.963Z,31.00
2018-05-26T19:43:55.196Z,31.20
2018-05-26T19:46:21.367Z,32.00
2018-05-26T19:48:48.572Z,31.80
2018-05-26T19:51:14.793Z,31.80
2018-05-26T19:53:41.917Z,32.00
2018-05-26T19:56:08.140Z,32.20
2018-05-26T19:58:35.613Z,32.60
2018-05-26T20:01:01.943Z,32.60
2018-05-26T20:03:28.153Z,32.70
2018-05-26T20:05:54.411Z,32.90
2018-05-26T20:08:20.807Z,33.10
2018-05-26T20:10:47.060Z,33.20
2018-05-26T20:13:13.341Z,33.50
2018-05-26T20:15:39.538Z,33.60
2018-05-26T20:18:05.817Z,33.70
2018-05-26T20:20:33.125Z,34.20
2018-05-26T20:22:59.658Z,34.10
2018-05-26T20:25:26.137Z,34.30
2018-05-26T20:27:53.494Z,34.70
2018-05-26T20:30:19.872Z,34.70
2018-05-26T20:32:46.360Z,34.80
2018-05-26T20:35:12.907Z,35.00
2018-05-26T20:37:40.537Z,35.30
2018-05-26T20:40:07.664Z,35.50
2018-05-26T20:42:34.129Z,35.50
2018-05-26T20:45:00.719Z,35.60
2018-05-26T20:47:27.871Z,35.90
2018-05-26T20:49:55.007Z,36.10
2018-05-26T20:52:21.633Z,36.10
2018-05-26T20:54:48.280Z,36.20
2018-05-26T20:57:14.561Z,36.40
2018-05-26T20:59:41.079Z,36.60
2018-05-26T21:02:07.984Z,36.60
2018-05-26T21:04:34.313Z,36.80
2018-05-26T21:07:01.313Z,37.20
2018-05-26T21:09:28.633Z,37.20
2018-05-26T21:11:54.845Z,37.20
2018-05-26T21:14:21.061Z,37.30
2018-05-26T21:16:47.318Z,37.50
2018-05-26T21:19:13.511Z,37.70
2018-05-26T21:21:39.717Z,38.10
2018-05-26T21:24:05.919Z,38.20
2018-05-26T21:26:32.196Z,38.40
2018-05-26T21:28:58.887Z,38.60
2018-05-26T21:31:26.111Z,38.80
2018-05-26T21:33:53.796Z,38.90
2018-05-26T21:36:20.473Z,39.20
2018-05-26T21:38:48.304Z,39.40
2018-05-26T21:41:14.633Z,39.50
2018-05-26T21:43:40.819Z,39.60
2018-05-26T21:46:07.801Z,39.90
2018-05-26T21:48:34.084Z,39.90
2018-05-26T21:51:00.314Z,40.10
2018-05-26T21:53:27.273Z,40.30
2018-05-26T21:55:53.498Z,40.40
2018-05-26T21:58:19.679Z,40.50
2018-05-26T22:00:46.105Z,40.70
2018-05-26T22:03:12.327Z,40.70
2018-05-26T22:05:38.505Z,41.00
2018-05-26T22:08:04.730Z,41.10
2018-05-26T22:10:30.886Z,40.80
2018-05-26T22:12:57.219Z,42.00
2018-05-26T22:15:23.459Z,41.50
2018-05-26T22:17:49.728Z,41.60
2018-05-26T22:20:16.497Z,41.70
2018-05-26T22:22:42.649Z,41.90
2018-05-26T22:25:08.817Z,42.00
2018-05-26T22:27:35.885Z,42.10
2018-05-26T22:30:02.095Z,42.20
2018-05-26T22:32:29.055Z,42.90
2018-05-26T22:34:55.365Z,42.40
2018-05-26T22:37:21.579Z,42.40
2018-05-26T22:39:48.566Z,42.30
2018-05-26T22:42:15.493Z,42.30
2018-05-26T22:44:41.666Z,42.30
2018-05-26T22:47:07.865Z,42.30
2018-05-26T22:49:34.069Z,42.50
2018-05-26T22:52:00.332Z,42.50
2018-05-26T22:54:26.517Z,42.70
2018-05-26T22:56:52.729Z,42.90
2018-05-26T22:59:18.933Z,43.10
2018-05-26T23:01:45.930Z,43.30
2018-05-26T23:04:12.109Z,43.50
2018-05-26T23:06:38.298Z,43.60
2018-05-26T23:09:04.454Z,43.80
2018-05-26T23:11:30.681Z,44.00
2018-05-26T23:13:56.879Z,44.10
2018-05-26T23:16:23.080Z,44.20
2018-05-26T23:18:49.248Z,44.30
2018-05-26T23:21:15.437Z,44.40
2018-05-26T23:23:41.616Z,44.50
2018-05-26T23:26:08.530Z,44.70
2018-05-26T23:28:34.704Z,45.30
2018-05-26T23:31:00.905Z,44.80
2018-05-26T23:33:27.220Z,44.80
2018-05-26T23:35:53.376Z,44.90
2018-05-26T23:38:19.553Z,45.00
2018-05-26T23:40:45.737Z,45.10
2018-05-26T23:43:11.894Z,45.20
2018-05-26T23:45:38.809Z,46.00
2018-05-26T23:48:05.141Z,45.50
2018-05-26T23:50:31.356Z,45.50
2018-05-26T23:52:57.557Z,45.60
2018-05-26T23:55:24.469Z,45.80
2018-05-26T23:57:50.637Z,45.80
